createdAt,value
2023-03-06T00:00:58.489Z,2.00
2023-03-06T00:03:27.971Z,2.10
2023-03-06T00:05:59.276Z,2.10
2023-03-06T00:08:29.031Z,2.30
2023-03-06T00:10:56.990Z,2.40
2023-03-06T00:13:26.586Z,2.50
2023-03-06T00:15:53.434Z,2.20
2023-03-06T00:18:20.224Z,2.20
2023-03-06T00:20:47.168Z,2.25
2023-03-06T00:23:15.093Z,2.22
2023-03-06T00:25:44.104Z,2.22
2023-03-06T00:28:12.337Z,2.40
2023-03-06T00:30:39.437Z,2.05
2023-03-06T00:33:06.348Z,2.10
2023-03-06T00:35:33.201Z,1.98
2023-03-06T00:38:00.205Z,1.98
2023-03-06T00:40:27.520Z,1.80
2023-03-06T00:42:54.458Z,1.83
2023-03-06T00:45:21.369Z,1.83
2023-03-06T00:47:48.141Z,1.88
2023-03-06T00:50:15.089Z,2.20
2023-03-06T00:52:42.132Z,2.42
2023-03-06T00:55:10.444Z,2.40
2023-03-06T00:57:37.372Z,2.35
2023-03-06T01:00:06.443Z,2.75
2023-03-06T01:02:33.344Z,2.83
2023-03-06T01:05:00.470Z,2.90
2023-03-06T01:07:27.831Z,2.92
2023-03-06T01:09:54.725Z,3.53
2023-03-06T01:12:23.501Z,3.20
2023-03-06T01:14:51.366Z,3.20
2023-03-06T01:17:18.321Z,3.30
2023-03-06T01:19:45.131Z,3.13
2023-03-06T01:22:13.938Z,3.47
2023-03-06T01:24:40.793Z,4.22
2023-03-06T01:27:07.572Z,4.13
2023-03-06T01:29:34.478Z,4.13
2023-03-06T01:32:01.443Z,4.40
2023-03-06T01:34:28.299Z,4.15
2023-03-06T01:36:55.235Z,4.53
2023-03-06T01:39:22.005Z,5.03
2023-03-06T01:41:48.920Z,5.22
2023-03-06T01:44:16.313Z,5.15
2023-03-06T01:46:45.083Z,5.82
2023-03-06T01:49:25.222Z,5.85
2023-03-06T01:52:03.468Z,6.07
2023-03-06T01:54:43.123Z,5.95
2023-03-06T01:57:17.321Z,6.80
2023-03-06T01:59:46.739Z,6.03
2023-03-06T02:02:15.355Z,8.13
2023-03-06T02:04:44.030Z,7.60
2023-03-06T02:07:11.773Z,7.53
2023-03-06T02:09:39.194Z,8.27
2023-03-06T02:12:14.418Z,7.93
2023-03-06T02:14:42.508Z,8.20
2023-03-06T02:17:14.099Z,8.13
2023-03-06T02:20:03.033Z,8.25
2023-03-06T02:22:57.951Z,8.93
2023-03-06T02:25:36.120Z,9.50
2023-03-06T02:28:07.756Z,9.27
2023-03-06T02:30:36.753Z,8.70
2023-03-06T02:33:04.973Z,8.93
2023-03-06T02:35:35.923Z,9.57
2023-03-06T02:38:15.856Z,8.63
2023-03-06T02:40:47.448Z,8.45
2023-03-06T02:43:21.130Z,9.32
2023-03-06T02:45:51.806Z,8.65
2023-03-06T02:48:20.798Z,8.57
2023-03-06T02:50:48.537Z,8.95
2023-03-06T02:53:18.460Z,7.80
2023-03-06T02:55:46.539Z,8.70
2023-03-06T02:58:15.518Z,7.93
2023-03-06T03:00:42.665Z,7.57
2023-03-06T03:03:10.176Z,6.97
2023-03-06T03:05:37.046Z,6.38
2023-03-06T03:08:11.666Z,5.93
2023-03-06T03:10:38.628Z,5.97
2023-03-06T03:13:06.236Z,5.55
2023-03-06T03:15:34.630Z,5.97
2023-03-06T03:18:01.495Z,6.63
2023-03-06T03:20:28.271Z,5.93
2023-03-06T03:22:56.463Z,6.05
2023-03-06T03:25:26.088Z,5.60
2023-03-06T03:27:55.625Z,4.97
2023-03-06T03:30:22.893Z,6.03
2023-03-06T03:32:50.465Z,5.32
2023-03-06T03:35:17.589Z,5.55
2023-03-06T03:37:44.634Z,5.70
2023-03-06T03:40:12.939Z,5.30
2023-03-06T03:42:39.803Z,5.28
2023-03-06T03:45:08.331Z,6.13
2023-03-06T03:47:35.226Z,5.80
2023-03-06T03:50:02.856Z,5.50
2023-03-06T03:52:29.955Z,5.25
2023-03-06T03:54:56.999Z,5.78
2023-03-06T03:57:24.733Z,4.82
2023-03-06T03:59:53.702Z,4.88
2023-03-06T04:02:40.584Z,4.95
2023-03-06T04:05:18.699Z,4.78
2023-03-06T04:07:46.763Z,4.93
2023-03-06T04:10:14.935Z,5.15
2023-03-06T04:12:42.316Z,4.38
2023-03-06T04:15:11.572Z,4.60
2023-03-06T04:17:39.280Z,4.65
2023-03-06T04:20:10.758Z,4.70
2023-03-06T04:22:38.156Z,5.35
2023-03-06T04:25:05.708Z,5.00
2023-03-06T04:27:32.708Z,5.15
2023-03-06T04:29:59.913Z,4.70
2023-03-06T04:32:27.057Z,4.55
2023-03-06T04:34:54.107Z,4.95
2023-03-06T04:37:25.312Z,4.60
2023-03-06T04:39:53.580Z,4.25
2023-03-06T04:42:20.722Z,4.20
2023-03-06T04:44:47.771Z,3.45
2023-03-06T04:47:14.832Z,3.58
2023-03-06T04:49:41.633Z,2.90
2023-03-06T04:52:08.817Z,3.20
2023-03-06T04:54:35.635Z,3.03
2023-03-06T04:57:02.466Z,3.03
2023-03-06T04:59:29.545Z,2.80
2023-03-06T05:01:56.561Z,3.35
2023-03-06T05:04:23.425Z,2.83
2023-03-06T05:06:50.260Z,3.20
2023-03-06T05:09:17.059Z,3.20
2023-03-06T05:11:43.878Z,2.90
2023-03-06T05:14:10.706Z,3.30
2023-03-06T05:16:37.610Z,3.20
2023-03-06T05:19:04.488Z,2.92
2023-03-06T05:21:31.316Z,2.88
2023-03-06T05:23:58.146Z,2.60
2023-03-06T05:26:25.120Z,3.47
2023-03-06T05:28:52.005Z,2.60
2023-03-06T05:31:18.832Z,2.58
2023-03-06T05:33:45.671Z,2.55
2023-03-06T05:36:12.522Z,2.15
2023-03-06T05:38:39.358Z,2.30
2023-03-06T05:41:06.166Z,2.20
2023-03-06T05:43:33.007Z,1.77
2023-03-06T05:46:05.786Z,2.08
2023-03-06T05:48:34.088Z,2.03
2023-03-06T05:51:02.240Z,2.20
2023-03-06T05:53:29.680Z,2.30
2023-03-06T05:56:03.804Z,2.03
2023-03-06T05:58:32.477Z,2.30
2023-03-06T06:00:59.910Z,2.03
2023-03-06T06:03:27.517Z,2.10
2023-03-06T06:05:54.345Z,2.05
2023-03-06T06:08:21.788Z,2.50
2023-03-06T06:10:50.444Z,2.10
2023-03-06T06:13:19.034Z,2.60
2023-03-06T06:15:45.880Z,2.10
2023-03-06T06:18:12.749Z,2.60
2023-03-06T06:20:39.629Z,2.45
2023-03-06T06:23:06.581Z,2.10
2023-03-06T06:25:33.881Z,2.47
2023-03-06T06:28:00.817Z,3.00
2023-03-06T06:30:27.634Z,2.63
2023-03-06T06:32:54.573Z,2.35
2023-03-06T06:35:21.648Z,1.70
2023-03-06T06:37:49.073Z,1.70
2023-03-06T06:40:16.050Z,1.60
2023-03-06T06:42:43.481Z,1.58
2023-03-06T06:45:11.291Z,1.33
2023-03-06T06:47:41.249Z,1.13
2023-03-06T06:50:13.028Z,1.13
2023-03-06T06:52:40.353Z,0.85
2023-03-06T06:55:08.737Z,1.17
2023-03-06T06:57:35.554Z,1.05
2023-03-06T07:00:03.104Z,1.08
2023-03-06T07:02:30.105Z,1.38
2023-03-06T07:05:04.325Z,1.35
2023-03-06T07:07:37.557Z,1.40
2023-03-06T07:10:12.022Z,0.90
2023-03-06T07:12:38.939Z,1.13
2023-03-06T07:15:07.981Z,1.27
2023-03-06T07:17:34.860Z,1.20
2023-03-06T07:20:01.884Z,1.63
2023-03-06T07:22:31.929Z,1.55
2023-03-06T07:25:05.382Z,1.30
2023-03-06T07:27:32.474Z,1.40
2023-03-06T07:29:59.429Z,1.45
2023-03-06T07:32:26.486Z,1.17
2023-03-06T07:34:58.390Z,1.20
2023-03-06T07:37:33.001Z,1.30
2023-03-06T07:40:00.056Z,1.38
2023-03-06T07:42:29.130Z,1.48
2023-03-06T07:45:01.116Z,1.30
2023-03-06T07:47:27.922Z,1.40
2023-03-06T07:49:56.740Z,1.20
2023-03-06T07:52:24.243Z,1.15
2023-03-06T07:54:51.079Z,1.30
2023-03-06T07:57:17.835Z,1.50
2023-03-06T07:59:44.650Z,1.05
2023-03-06T08:02:12.285Z,1.00
2023-03-06T08:04:39.061Z,1.30
2023-03-06T08:07:05.846Z,1.60
2023-03-06T08:09:34.814Z,1.40
2023-03-06T08:12:02.222Z,1.20
2023-03-06T08:14:29.254Z,1.20
2023-03-06T08:16:56.327Z,1.30
2023-03-06T08:19:23.219Z,1.20
2023-03-06T08:21:50.010Z,1.08
2023-03-06T08:24:18.463Z,1.00
2023-03-06T08:26:45.893Z,0.90
2023-03-06T08:29:13.554Z,1.55
2023-03-06T08:31:44.020Z,1.17
2023-03-06T08:34:15.952Z,1.10
2023-03-06T08:36:42.839Z,1.25
2023-03-06T08:39:10.087Z,1.30
2023-03-06T08:41:37.796Z,1.23
2023-03-06T08:44:05.319Z,1.00
2023-03-06T08:46:33.892Z,1.10
2023-03-06T08:49:01.181Z,1.40
2023-03-06T08:51:29.017Z,0.82
2023-03-06T08:53:57.866Z,0.68
2023-03-06T08:56:32.649Z,0.95
2023-03-06T08:59:02.106Z,1.00
2023-03-06T09:01:33.204Z,0.80
2023-03-06T09:04:04.319Z,0.68
2023-03-06T09:06:35.707Z,0.80
2023-03-06T09:09:03.751Z,0.60
2023-03-06T09:11:31.450Z,0.70
2023-03-06T09:13:59.315Z,0.60
2023-03-06T09:16:26.808Z,0.60
2023-03-06T09:18:54.235Z,0.70
2023-03-06T09:21:23.081Z,0.75
2023-03-06T09:23:50.432Z,0.80
2023-03-06T09:26:18.531Z,0.63
2023-03-06T09:28:45.748Z,0.63
2023-03-06T09:31:18.043Z,0.80
2023-03-06T09:33:45.703Z,0.65
2023-03-06T09:36:22.889Z,0.55
2023-03-06T09:38:50.731Z,0.60
2023-03-06T09:41:34.092Z,0.40
2023-03-06T09:44:08.670Z,0.52
2023-03-06T09:47:02.180Z,1.45
2023-03-06T09:50:13.608Z,0.70
2023-03-06T09:53:11.773Z,0.43
2023-03-06T09:55:41.178Z,0.60
2023-03-06T09:58:14.438Z,0.43
2023-03-06T10:01:02.667Z,0.50
2023-03-06T10:03:57.832Z,0.50
2023-03-06T10:06:33.041Z,0.50
2023-03-06T10:09:14.992Z,0.40
2023-03-06T10:11:51.477Z,0.40
2023-03-06T10:14:47.698Z,0.43
2023-03-06T10:17:23.550Z,0.40
2023-03-06T10:19:51.161Z,0.57
2023-03-06T10:22:38.248Z,0.50
2023-03-06T10:25:30.116Z,0.50
2023-03-06T10:28:34.468Z,0.40
2023-03-06T10:31:41.020Z,0.45
2023-03-06T10:34:24.124Z,0.30
2023-03-06T10:36:51.303Z,0.47
2023-03-06T10:39:22.159Z,0.63
2023-03-06T10:41:50.091Z,0.40
2023-03-06T10:44:20.326Z,0.40
2023-03-06T10:46:51.670Z,0.57
2023-03-06T10:49:36.009Z,0.47
2023-03-06T10:52:14.803Z,0.50
2023-03-06T10:54:44.171Z,0.40
2023-03-06T10:57:31.803Z,0.60
2023-03-06T11:00:04.868Z,0.70
2023-03-06T11:02:40.990Z,0.55
2023-03-06T11:05:20.794Z,0.60
2023-03-06T11:07:59.100Z,0.70
2023-03-06T11:10:27.247Z,0.60
2023-03-06T11:13:04.607Z,0.68
2023-03-06T11:15:32.037Z,0.60
2023-03-06T11:18:28.504Z,0.70
2023-03-06T11:20:56.801Z,0.70
2023-03-06T11:23:36.831Z,0.68
2023-03-06T11:26:29.773Z,0.82
2023-03-06T11:29:49.301Z,0.70
2023-03-06T11:32:23.678Z,0.70
2023-03-06T11:35:02.535Z,1.00
2023-03-06T11:37:32.549Z,0.85
2023-03-06T11:40:17.517Z,0.90
2023-03-06T11:43:06.300Z,0.88
2023-03-06T11:45:38.171Z,0.93
2023-03-06T11:48:13.611Z,0.85
2023-03-06T11:50:52.480Z,1.25
2023-03-06T11:53:32.139Z,1.38
2023-03-06T11:56:45.684Z,1.50
2023-03-06T11:59:30.520Z,1.60
2023-03-06T12:02:31.092Z,1.30
2023-03-06T12:05:35.967Z,1.67
2023-03-06T12:08:55.034Z,1.27
2023-03-06T12:11:57.493Z,0.98
2023-03-06T12:15:16.265Z,1.00
2023-03-06T12:18:13.348Z,1.10
2023-03-06T12:21:15.360Z,1.23
2023-03-06T12:24:23.183Z,1.45
2023-03-06T12:27:10.821Z,1.60
2023-03-06T12:29:40.522Z,1.52
2023-03-06T12:32:53.901Z,1.40
2023-03-06T12:36:01.144Z,2.05
2023-03-06T12:38:39.723Z,2.10
2023-03-06T12:41:43.460Z,2.80
2023-03-06T12:44:55.792Z,3.35
2023-03-06T12:47:30.704Z,3.90
2023-03-06T12:50:13.415Z,3.53
2023-03-06T12:52:41.907Z,4.03
2023-03-06T12:55:20.372Z,4.20
2023-03-06T12:57:49.467Z,4.10
2023-03-06T13:00:34.238Z,4.47
2023-03-06T13:03:22.230Z,4.90
2023-03-06T13:06:24.489Z,4.30
2023-03-06T13:09:37.125Z,4.45
2023-03-06T13:12:19.442Z,4.63
2023-03-06T13:14:54.208Z,5.57
2023-03-06T13:17:24.273Z,5.60
2023-03-06T13:20:16.190Z,4.60
2023-03-06T13:22:46.162Z,4.90
2023-03-06T13:25:19.152Z,5.95
2023-03-06T13:27:52.124Z,6.47
2023-03-06T13:30:45.796Z,6.38
2023-03-06T13:33:37.033Z,7.18
2023-03-06T13:36:39.388Z,7.10
2023-03-06T13:39:10.012Z,6.97
2023-03-06T13:41:54.828Z,7.55
2023-03-06T13:44:24.676Z,8.02
2023-03-06T13:47:06.186Z,7.20
2023-03-06T13:49:34.997Z,7.15
2023-03-06T13:52:43.237Z,6.90
2023-03-06T13:55:37.962Z,7.05
2023-03-06T13:58:36.491Z,6.32
2023-03-06T14:01:22.908Z,6.65
2023-03-06T14:04:10.743Z,5.68
2023-03-06T14:06:38.328Z,5.72
2023-03-06T14:09:15.774Z,5.22
2023-03-06T14:11:54.929Z,5.63
2023-03-06T14:14:44.651Z,4.65
2023-03-06T14:17:25.513Z,4.88
2023-03-06T14:19:52.437Z,4.43
2023-03-06T14:22:23.957Z,4.72
2023-03-06T14:25:15.038Z,4.40
2023-03-06T14:27:52.590Z,4.28
2023-03-06T14:30:25.236Z,4.15
2023-03-06T14:32:55.063Z,4.95
2023-03-06T14:35:29.568Z,4.88
2023-03-06T14:38:04.058Z,4.55
2023-03-06T14:40:42.581Z,3.80
2023-03-06T14:43:29.297Z,4.55
2023-03-06T14:46:06.435Z,4.63
2023-03-06T14:48:45.899Z,4.25
2023-03-06T14:51:21.138Z,3.42
2023-03-06T14:53:53.783Z,4.43
2023-03-06T14:56:25.486Z,4.80
2023-03-06T14:58:57.726Z,4.30
2023-03-06T15:01:35.707Z,4.13
2023-03-06T15:04:22.401Z,3.72
2023-03-06T15:06:49.944Z,4.80
2023-03-06T15:09:30.160Z,4.25
2023-03-06T15:12:02.438Z,4.97
2023-03-06T15:14:33.976Z,4.90
2023-03-06T15:17:21.643Z,4.90
2023-03-06T15:20:00.557Z,5.13
2023-03-06T15:22:41.360Z,5.15
2023-03-06T15:25:30.754Z,4.90
2023-03-06T15:28:04.406Z,4.85
2023-03-06T15:30:33.709Z,5.53
2023-03-06T15:33:24.973Z,4.70
2023-03-06T15:36:04.417Z,4.72
2023-03-06T15:38:43.110Z,4.50
2023-03-06T15:41:34.079Z,3.88
2023-03-06T15:44:10.831Z,4.65
2023-03-06T15:46:37.858Z,5.53
2023-03-06T15:49:04.817Z,5.60
2023-03-06T15:51:32.775Z,5.13
2023-03-06T15:54:11.316Z,6.30
2023-03-06T15:56:45.961Z,6.07
2023-03-06T15:59:27.503Z,7.07
2023-03-06T16:01:54.597Z,7.63
2023-03-06T16:04:21.539Z,6.80
2023-03-06T16:06:48.762Z,6.68
2023-03-06T16:09:15.608Z,6.75
2023-03-06T16:11:44.781Z,6.72
2023-03-06T16:14:23.665Z,6.40
2023-03-06T16:16:54.098Z,5.85
2023-03-06T16:19:26.771Z,7.50
2023-03-06T16:21:57.568Z,9.13
2023-03-06T16:24:26.034Z,9.30
2023-03-06T16:26:55.018Z,9.45
2023-03-06T16:29:27.124Z,10.10
2023-03-06T16:31:57.277Z,10.23
2023-03-06T16:34:24.492Z,10.82
2023-03-06T16:36:51.598Z,12.13
2023-03-06T16:39:21.949Z,12.77
2023-03-06T16:41:52.190Z,12.20
2023-03-06T16:44:20.612Z,12.80
2023-03-06T16:46:50.019Z,13.15
2023-03-06T16:49:24.020Z,13.43
2023-03-06T16:51:52.362Z,10.50
2023-03-06T16:54:20.247Z,12.48
2023-03-06T16:56:47.200Z,12.98
2023-03-06T16:59:14.102Z,12.40
2023-03-06T17:01:45.369Z,12.50
2023-03-06T17:04:12.595Z,11.38
2023-03-06T17:06:39.896Z,11.65
2023-03-06T17:09:07.037Z,11.23
2023-03-06T17:11:38.633Z,11.52
2023-03-06T17:14:06.777Z,11.10
2023-03-06T17:16:33.771Z,10.23
2023-03-06T17:19:02.270Z,10.55
2023-03-06T17:21:30.182Z,10.68
2023-03-06T17:23:57.177Z,10.15
2023-03-06T17:26:24.185Z,9.80
2023-03-06T17:28:51.096Z,9.27
2023-03-06T17:31:22.639Z,10.25
2023-03-06T17:33:51.429Z,10.57
2023-03-06T17:36:19.222Z,10.45
2023-03-06T17:38:46.471Z,9.82
2023-03-06T17:41:13.444Z,10.48
2023-03-06T17:43:41.626Z,10.82
2023-03-06T17:46:13.331Z,12.13
2023-03-06T17:48:40.457Z,12.32
2023-03-06T17:51:08.222Z,10.90
2023-03-06T17:53:35.913Z,12.23
2023-03-06T17:56:08.919Z,12.20
2023-03-06T17:58:36.083Z,11.90
2023-03-06T18:01:14.225Z,12.15
2023-03-06T18:03:45.829Z,12.38
2023-03-06T18:06:13.538Z,14.02
2023-03-06T18:08:40.965Z,14.45
2023-03-06T18:11:09.750Z,12.82
2023-03-06T18:13:41.196Z,12.90
2023-03-06T18:16:10.256Z,13.23
2023-03-06T18:18:37.283Z,13.68
2023-03-06T18:21:11.603Z,14.00
2023-03-06T18:23:40.465Z,14.60
2023-03-06T18:26:17.186Z,14.48
2023-03-06T18:28:47.706Z,14.48
2023-03-06T18:31:42.252Z,13.23
2023-03-06T18:34:13.788Z,14.98
2023-03-06T18:36:46.930Z,15.35
2023-03-06T18:39:15.818Z,14.50
2023-03-06T18:41:42.938Z,13.88
2023-03-06T18:44:15.302Z,13.48
2023-03-06T18:46:42.144Z,14.43
2023-03-06T18:49:10.254Z,13.85
2023-03-06T18:51:37.293Z,15.48
2023-03-06T18:54:05.977Z,14.65
2023-03-06T18:56:33.606Z,15.45
2023-03-06T18:59:06.443Z,15.10
2023-03-06T19:01:34.068Z,15.02
2023-03-06T19:04:03.741Z,16.33
2023-03-06T19:06:31.330Z,14.90
2023-03-06T19:08:58.743Z,15.32
2023-03-06T19:11:26.779Z,15.95
2023-03-06T19:13:54.498Z,16.13
2023-03-06T19:16:31.287Z,16.92
2023-03-06T19:18:59.334Z,16.40
2023-03-06T19:21:28.220Z,17.52
2023-03-06T19:23:56.322Z,16.40
2023-03-06T19:26:23.470Z,17.20
2023-03-06T19:28:52.269Z,17.45
2023-03-06T19:31:24.876Z,17.00
2023-03-06T19:33:53.626Z,17.52
2023-03-06T19:36:27.592Z,16.05
2023-03-06T19:39:01.410Z,17.13
2023-03-06T19:41:28.897Z,17.83
2023-03-06T19:44:03.101Z,18.30
2023-03-06T19:46:31.585Z,16.95
2023-03-06T19:49:11.498Z,16.95
2023-03-06T19:51:38.500Z,17.50
2023-03-06T19:54:05.803Z,17.40
2023-03-06T19:56:33.564Z,18.23
2023-03-06T19:59:00.581Z,17.67
2023-03-06T20:01:28.497Z,17.92
2023-03-06T20:03:59.643Z,18.90
2023-03-06T20:06:33.522Z,17.80
2023-03-06T20:09:08.307Z,17.95
2023-03-06T20:11:35.519Z,19.25
2023-03-06T20:14:05.050Z,17.08
2023-03-06T20:16:33.355Z,17.25
2023-03-06T20:19:01.730Z,17.00
2023-03-06T20:21:32.032Z,17.85
2023-03-06T20:23:59.645Z,17.17
2023-03-06T20:26:29.234Z,17.45
2023-03-06T20:28:57.890Z,17.23
2023-03-06T20:31:28.027Z,16.38
2023-03-06T20:33:58.016Z,17.35
2023-03-06T20:36:29.409Z,18.98
2023-03-06T20:39:00.230Z,17.20
2023-03-06T20:41:29.728Z,16.95
2023-03-06T20:44:01.001Z,16.77
2023-03-06T20:46:28.070Z,16.30
2023-03-06T20:48:56.165Z,15.18
2023-03-06T20:51:28.551Z,15.32
2023-03-06T20:53:56.327Z,15.43
2023-03-06T20:56:27.025Z,14.43
2023-03-06T20:58:54.137Z,14.90
2023-03-06T21:01:27.658Z,15.30
2023-03-06T21:03:56.844Z,12.80
2023-03-06T21:06:25.632Z,14.10
2023-03-06T21:08:52.538Z,12.65
2023-03-06T21:11:19.670Z,14.27
2023-03-06T21:13:46.576Z,15.00
2023-03-06T21:16:20.449Z,15.75
2023-03-06T21:18:48.016Z,15.70
2023-03-06T21:21:21.553Z,15.95
2023-03-06T21:23:49.169Z,14.50
2023-03-06T21:26:22.790Z,14.48
2023-03-06T21:28:50.605Z,15.43
2023-03-06T21:31:20.718Z,14.07
2023-03-06T21:33:49.644Z,11.95
2023-03-06T21:36:18.643Z,13.90
2023-03-06T21:38:47.775Z,12.88
2023-03-06T21:41:19.275Z,12.10
2023-03-06T21:43:46.947Z,11.68
2023-03-06T21:46:13.952Z,10.50
2023-03-06T21:48:41.159Z,9.48
2023-03-06T21:51:12.785Z,8.77
2023-03-06T21:53:43.269Z,8.20
2023-03-06T21:56:12.509Z,7.45
2023-03-06T21:58:39.621Z,7.45
2023-03-06T22:01:13.017Z,6.50
2023-03-06T22:03:40.395Z,5.97
2023-03-06T22:06:13.533Z,5.57
2023-03-06T22:08:41.667Z,5.57
2023-03-06T22:11:14.779Z,5.72
2023-03-06T22:13:42.333Z,4.88
2023-03-06T22:16:09.802Z,5.07
2023-03-06T22:18:37.726Z,4.35
2023-03-06T22:21:12.913Z,3.88
2023-03-06T22:23:43.218Z,3.95
2023-03-06T22:26:13.652Z,4.00
2023-03-06T22:28:41.974Z,3.70
2023-03-06T22:31:13.753Z,3.72
2023-03-06T22:33:40.955Z,3.30
2023-03-06T22:36:12.909Z,3.47
2023-03-06T22:38:43.175Z,3.15
2023-03-06T22:41:11.694Z,3.17
2023-03-06T22:43:38.978Z,3.13
2023-03-06T22:46:13.664Z,3.10
2023-03-06T22:48:41.098Z,3.60
2023-03-06T22:51:18.286Z,2.75
2023-03-06T22:53:46.756Z,2.58
2023-03-06T22:56:18.956Z,2.80
2023-03-06T22:58:46.761Z,2.80
2023-03-06T23:01:20.512Z,2.60
2023-03-06T23:03:50.338Z,2.50
2023-03-06T23:06:24.940Z,2.60
2023-03-06T23:09:29.375Z,2.85
2023-03-06T23:12:14.986Z,2.33
2023-03-06T23:15:00.388Z,2.67
2023-03-06T23:17:46.143Z,2.65
2023-03-06T23:20:32.026Z,2.63
2023-03-06T23:23:17.500Z,2.55
2023-03-06T23:25:44.499Z,3.30
2023-03-06T23:28:12.468Z,3.20
2023-03-06T23:30:40.800Z,3.63
2023-03-06T23:33:08.529Z,4.93
2023-03-06T23:35:37.721Z,4.88
2023-03-06T23:38:04.972Z,5.30
2023-03-06T23:40:34.437Z,5.82
2023-03-06T23:43:01.339Z,6.10
2023-03-06T23:45:28.287Z,5.50
2023-03-06T23:47:55.668Z,6.18
2023-03-06T23:50:24.176Z,6.18
2023-03-06T23:52:55.448Z,6.20
2023-03-06T23:55:22.594Z,5.50
2023-03-06T23:57:49.384Z,5.50
